sensor_id;sensor_type;location;lat;lon;timestamp;P1;durP1;ratioP1;P2;durP2;ratioP2
12059;SDS011;6091;51.432;6.880;2023-09-19T00:00:56;1.70;;;1.40;;
12059;SDS011;6091;51.432;6.880;2023-09-19T00:03:24;1.63;;;1.52;;
12059;SDS011;6091;51.432;6.880;2023-09-19T00:05:55;2.13;;;1.30;;
12059;SDS011;6091;51.432;6.880;2023-09-19T00:08:24;1.30;;;1.15;;
12059;SDS011;6091;51.432;6.880;2023-09-19T00:10:51;1.75;;;1.20;;
12059;SDS011;6091;51.432;6.880;2023-09-19T00:13:21;1.58;;;1.15;;
12059;SDS011;6091;51.432;6.880;2023-09-19T00:15:48;1.33;;;1.20;;
12059;SDS011;6091;51.432;6.880;2023-09-19T00:18:19;1.95;;;1.35;;
12059;SDS011;6091;51.432;6.880;2023-09-19T00:20:49;1.40;;;1.30;;
12059;SDS011;6091;51.432;6.880;2023-09-19T00:23:18;2.33;;;1.50;;
12059;SDS011;6091;51.432;6.880;2023-09-19T00:25:46;1.25;;;1.15;;
12059;SDS011;6091;51.432;6.880;2023-09-19T00:28:15;1.75;;;1.40;;
12059;SDS011;6091;51.432;6.880;2023-09-19T00:30:44;1.55;;;1.17;;
12059;SDS011;6091;51.432;6.880;2023-09-19T00:33:17;1.80;;;1.30;;
12059;SDS011;6091;51.432;6.880;2023-09-19T00:35:49;2.08;;;1.33;;
12059;SDS011;6091;51.432;6.880;2023-09-19T00:38:18;1.67;;;1.55;;
12059;SDS011;6091;51.432;6.880;2023-09-19T00:40:53;2.55;;;1.40;;
12059;SDS011;6091;51.432;6.880;2023-09-19T00:43:26;2.33;;;1.20;;
12059;SDS011;6091;51.432;6.880;2023-09-19T00:45:54;1.73;;;1.35;;
12059;SDS011;6091;51.432;6.880;2023-09-19T00:48:24;1.98;;;1.15;;
12059;SDS011;6091;51.432;6.880;2023-09-19T00:50:54;1.55;;;1.45;;
12059;SDS011;6091;51.432;6.880;2023-09-19T00:53:26;1.40;;;1.30;;
12059;SDS011;6091;51.432;6.880;2023-09-19T00:55:53;1.92;;;1.23;;
12059;SDS011;6091;51.432;6.880;2023-09-19T00:58:22;1.63;;;1.08;;
12059;SDS011;6091;51.432;6.880;2023-09-19T01:00:49;2.75;;;1.45;;
12059;SDS011;6091;51.432;6.880;2023-09-19T01:03:17;1.20;;;1.10;;
12059;SDS011;6091;51.432;6.880;2023-09-19T01:05:45;2.40;;;1.27;;
12059;SDS011;6091;51.432;6.880;2023-09-19T01:08:12;2.05;;;1.50;;
12059;SDS011;6091;51.432;6.880;2023-09-19T01:10:51;2.92;;;1.45;;
12059;SDS011;6091;51.432;6.880;2023-09-19T01:13:29;1.40;;;1.20;;
12059;SDS011;6091;51.432;6.880;2023-09-19T01:19:01;1.27;;;1.17;;
12059;SDS011;6091;51.432;6.880;2023-09-19T01:30:11;2.00;;;1.35;;
12059;SDS011;6091;51.432;6.880;2023-09-19T01:32:45;2.30;;;1.35;;
12059;SDS011;6091;51.432;6.880;2023-09-19T01:35:13;2.10;;;1.30;;
12059;SDS011;6091;51.432;6.880;2023-09-19T01:37:40;1.35;;;1.10;;
12059;SDS011;6091;51.432;6.880;2023-09-19T01:40:14;2.15;;;1.38;;
12059;SDS011;6091;51.432;6.880;2023-09-19T01:51:14;2.05;;;1.45;;
12059;SDS011;6091;51.432;6.880;2023-09-19T01:54:09;1.83;;;1.15;;
12059;SDS011;6091;51.432;6.880;2023-09-19T01:59:25;2.40;;;1.33;;
12059;SDS011;6091;51.432;6.880;2023-09-19T02:02:04;3.65;;;1.50;;
12059;SDS011;6091;51.432;6.880;2023-09-19T02:04:35;1.60;;;1.02;;
12059;SDS011;6091;51.432;6.880;2023-09-19T02:07:02;1.63;;;1.30;;
12059;SDS011;6091;51.432;6.880;2023-09-19T02:09:32;2.33;;;1.30;;
12059;SDS011;6091;51.432;6.880;2023-09-19T02:12:01;2.33;;;1.25;;
12059;SDS011;6091;51.432;6.880;2023-09-19T02:14:30;3.35;;;1.45;;
12059;SDS011;6091;51.432;6.880;2023-09-19T02:16:58;2.05;;;1.52;;
12059;SDS011;6091;51.432;6.880;2023-09-19T02:19:26;2.63;;;1.50;;
12059;SDS011;6091;51.432;6.880;2023-09-19T02:21:54;2.22;;;1.33;;
12059;SDS011;6091;51.432;6.880;2023-09-19T02:24:21;1.65;;;1.35;;
12059;SDS011;6091;51.432;6.880;2023-09-19T02:26:53;1.55;;;1.20;;
12059;SDS011;6091;51.432;6.880;2023-09-19T02:29:21;3.20;;;1.63;;
12059;SDS011;6091;51.432;6.880;2023-09-19T02:31:48;2.70;;;1.67;;
12059;SDS011;6091;51.432;6.880;2023-09-19T02:34:16;2.10;;;1.45;;
12059;SDS011;6091;51.432;6.880;2023-09-19T02:36:43;1.85;;;1.45;;
12059;SDS011;6091;51.432;6.880;2023-09-19T02:39:11;2.67;;;1.40;;
12059;SDS011;6091;51.432;6.880;2023-09-19T02:41:38;3.22;;;1.70;;
12059;SDS011;6091;51.432;6.880;2023-09-19T02:44:07;1.63;;;1.40;;
12059;SDS011;6091;51.432;6.880;2023-09-19T02:46:35;1.70;;;1.33;;
12059;SDS011;6091;51.432;6.880;2023-09-19T02:49:05;3.28;;;1.30;;
12059;SDS011;6091;51.432;6.880;2023-09-19T02:51:32;1.80;;;1.38;;
12059;SDS011;6091;51.432;6.880;2023-09-19T02:54:00;3.25;;;1.73;;
12059;SDS011;6091;51.432;6.880;2023-09-19T02:56:29;1.55;;;1.30;;
12059;SDS011;6091;51.432;6.880;2023-09-19T02:58:59;2.65;;;1.70;;
12059;SDS011;6091;51.432;6.880;2023-09-19T03:01:27;1.67;;;1.30;;
12059;SDS011;6091;51.432;6.880;2023-09-19T03:03:54;2.22;;;1.58;;
12059;SDS011;6091;51.432;6.880;2023-09-19T03:06:22;2.35;;;1.80;;
12059;SDS011;6091;51.432;6.880;2023-09-19T03:08:50;1.95;;;1.60;;
12059;SDS011;6091;51.432;6.880;2023-09-19T03:11:18;2.92;;;1.60;;
12059;SDS011;6091;51.432;6.880;2023-09-19T03:13:52;2.53;;;1.40;;
12059;SDS011;6091;51.432;6.880;2023-09-19T03:16:20;2.33;;;1.50;;
12059;SDS011;6091;51.432;6.880;2023-09-19T03:18:51;3.20;;;1.52;;
12059;SDS011;6091;51.432;6.880;2023-09-19T03:21:18;3.00;;;1.42;;
12059;SDS011;6091;51.432;6.880;2023-09-19T03:23:45;2.92;;;1.40;;
12059;SDS011;6091;51.432;6.880;2023-09-19T03:26:13;2.55;;;1.70;;
12059;SDS011;6091;51.432;6.880;2023-09-19T03:28:42;1.75;;;1.40;;
12059;SDS011;6091;51.432;6.880;2023-09-19T03:31:10;2.80;;;1.70;;
12059;SDS011;6091;51.432;6.880;2023-09-19T03:33:37;2.60;;;1.58;;
12059;SDS011;6091;51.432;6.880;2023-09-19T03:36:05;2.20;;;1.50;;
12059;SDS011;6091;51.432;6.880;2023-09-19T03:38:32;2.53;;;1.52;;
12059;SDS011;6091;51.432;6.880;2023-09-19T03:41:01;3.70;;;1.33;;
12059;SDS011;6091;51.432;6.880;2023-09-19T03:43:29;2.22;;;1.65;;
12059;SDS011;6091;51.432;6.880;2023-09-19T03:46:01;2.10;;;1.42;;
12059;SDS011;6091;51.432;6.880;2023-09-19T03:48:30;1.92;;;1.70;;
12059;SDS011;6091;51.432;6.880;2023-09-19T03:50:58;2.53;;;1.63;;
12059;SDS011;6091;51.432;6.880;2023-09-19T03:53:25;3.22;;;1.75;;
12059;SDS011;6091;51.432;6.880;2023-09-19T03:55:52;3.00;;;1.70;;
12059;SDS011;6091;51.432;6.880;2023-09-19T03:58:19;2.15;;;1.58;;
12059;SDS011;6091;51.432;6.880;2023-09-19T04:00:47;2.28;;;1.55;;
12059;SDS011;6091;51.432;6.880;2023-09-19T04:03:16;1.42;;;1.20;;
12059;SDS011;6091;51.432;6.880;2023-09-19T04:05:47;2.47;;;1.50;;
12059;SDS011;6091;51.432;6.880;2023-09-19T04:08:14;2.55;;;1.60;;
12059;SDS011;6091;51.432;6.880;2023-09-19T04:10:42;2.85;;;1.55;;
12059;SDS011;6091;51.432;6.880;2023-09-19T04:13:12;2.67;;;1.40;;
12059;SDS011;6091;51.432;6.880;2023-09-19T04:15:39;1.70;;;1.48;;
12059;SDS011;6091;51.432;6.880;2023-09-19T04:18:07;2.65;;;1.50;;
12059;SDS011;6091;51.432;6.880;2023-09-19T04:20:34;2.10;;;1.30;;
12059;SDS011;6091;51.432;6.880;2023-09-19T04:23:01;2.03;;;1.58;;
12059;SDS011;6091;51.432;6.880;2023-09-19T04:25:28;2.70;;;1.58;;
12059;SDS011;6091;51.432;6.880;2023-09-19T04:27:56;3.33;;;1.67;;
12059;SDS011;6091;51.432;6.880;2023-09-19T04:30:24;2.78;;;1.75;;
12059;SDS011;6091;51.432;6.880;2023-09-19T04:32:53;1.85;;;1.35;;
12059;SDS011;6091;51.432;6.880;2023-09-19T04:35:20;2.72;;;1.50;;
12059;SDS011;6091;51.432;6.880;2023-09-19T04:37:47;1.83;;;1.40;;
12059;SDS011;6091;51.432;6.880;2023-09-19T04:40:17;1.88;;;1.35;;
12059;SDS011;6091;51.432;6.880;2023-09-19T04:42:45;3.10;;;1.65;;
12059;SDS011;6091;51.432;6.880;2023-09-19T04:45:26;2.97;;;1.58;;
12059;SDS011;6091;51.432;6.880;2023-09-19T04:47:54;2.83;;;1.50;;
12059;SDS011;6091;51.432;6.880;2023-09-19T04:50:22;2.63;;;1.60;;
12059;SDS011;6091;51.432;6.880;2023-09-19T04:52:54;1.85;;;1.35;;
12059;SDS011;6091;51.432;6.880;2023-09-19T04:55:21;2.08;;;1.40;;
12059;SDS011;6091;51.432;6.880;2023-09-19T04:57:49;2.30;;;1.40;;
12059;SDS011;6091;51.432;6.880;2023-09-19T05:00:17;1.58;;;1.20;;
12059;SDS011;6091;51.432;6.880;2023-09-19T05:02:53;2.63;;;1.50;;
12059;SDS011;6091;51.432;6.880;2023-09-19T05:05:25;2.08;;;1.45;;
12059;SDS011;6091;51.432;6.880;2023-09-19T05:07:53;2.50;;;1.40;;
12059;SDS011;6091;51.432;6.880;2023-09-19T05:10:21;1.88;;;1.55;;
12059;SDS011;6091;51.432;6.880;2023-09-19T05:12:48;2.35;;;1.42;;
12059;SDS011;6091;51.432;6.880;2023-09-19T05:15:19;1.40;;;1.08;;
12059;SDS011;6091;51.432;6.880;2023-09-19T05:17:50;2.45;;;1.52;;
12059;SDS011;6091;51.432;6.880;2023-09-19T05:20:22;2.40;;;1.58;;
12059;SDS011;6091;51.432;6.880;2023-09-19T05:23:02;1.98;;;1.58;;
12059;SDS011;6091;51.432;6.880;2023-09-19T05:25:35;1.95;;;1.33;;
12059;SDS011;6091;51.432;6.880;2023-09-19T05:28:04;1.73;;;1.27;;
12059;SDS011;6091;51.432;6.880;2023-09-19T05:30:38;2.25;;;1.50;;
12059;SDS011;6091;51.432;6.880;2023-09-19T05:33:06;2.83;;;1.60;;
12059;SDS011;6091;51.432;6.880;2023-09-19T05:35:34;2.25;;;1.50;;
12059;SDS011;6091;51.432;6.880;2023-09-19T05:38:08;1.88;;;1.45;;
12059;SDS011;6091;51.432;6.880;2023-09-19T05:40:35;3.47;;;1.63;;
12059;SDS011;6091;51.432;6.880;2023-09-19T05:43:05;2.08;;;1.45;;
12059;SDS011;6091;51.432;6.880;2023-09-19T05:45:32;2.97;;;1.67;;
12059;SDS011;6091;51.432;6.880;2023-09-19T05:48:06;1.70;;;1.40;;
12059;SDS011;6091;51.432;6.880;2023-09-19T05:50:40;2.67;;;1.55;;
12059;SDS011;6091;51.432;6.880;2023-09-19T05:53:07;2.97;;;1.77;;
12059;SDS011;6091;51.432;6.880;2023-09-19T05:55:38;2.15;;;1.38;;
12059;SDS011;6091;51.432;6.880;2023-09-19T05:58:05;1.40;;;1.30;;
12059;SDS011;6091;51.432;6.880;2023-09-19T06:00:32;2.78;;;1.50;;
12059;SDS011;6091;51.432;6.880;2023-09-19T06:03:04;2.25;;;1.52;;
12059;SDS011;6091;51.432;6.880;2023-09-19T06:05:31;3.50;;;1.70;;
12059;SDS011;6091;51.432;6.880;2023-09-19T06:07:58;2.95;;;1.67;;
12059;SDS011;6091;51.432;6.880;2023-09-19T06:10:34;3.28;;;1.50;;
12059;SDS011;6091;51.432;6.880;2023-09-19T06:13:05;4.30;;;1.70;;
12059;SDS011;6091;51.432;6.880;2023-09-19T06:15:32;2.47;;;1.35;;
12059;SDS011;6091;51.432;6.880;2023-09-19T06:18:03;5.03;;;2.00;;
12059;SDS011;6091;51.432;6.880;2023-09-19T06:20:31;2.65;;;1.60;;
12059;SDS011;6091;51.432;6.880;2023-09-19T06:23:00;4.28;;;1.63;;
12059;SDS011;6091;51.432;6.880;2023-09-19T06:25:32;6.35;;;1.98;;
12059;SDS011;6091;51.432;6.880;2023-09-19T06:27:59;5.13;;;2.17;;
12059;SDS011;6091;51.432;6.880;2023-09-19T06:30:32;2.65;;;1.60;;
12059;SDS011;6091;51.432;6.880;2023-09-19T06:33:03;4.82;;;2.20;;
12059;SDS011;6091;51.432;6.880;2023-09-19T06:35:34;4.22;;;1.73;;
12059;SDS011;6091;51.432;6.880;2023-09-19T06:38:02;4.53;;;1.83;;
12059;SDS011;6091;51.432;6.880;2023-09-19T06:40:30;3.42;;;2.08;;
12059;SDS011;6091;51.432;6.880;2023-09-19T06:42:58;5.93;;;2.30;;
12059;SDS011;6091;51.432;6.880;2023-09-19T06:45:28;5.47;;;1.95;;
12059;SDS011;6091;51.432;6.880;2023-09-19T06:47:56;2.83;;;1.70;;
12059;SDS011;6091;51.432;6.880;2023-09-19T06:50:25;4.50;;;2.20;;
12059;SDS011;6091;51.432;6.880;2023-09-19T06:52:54;3.78;;;1.85;;
12059;SDS011;6091;51.432;6.880;2023-09-19T06:55:37;3.55;;;2.17;;
12059;SDS011;6091;51.432;6.880;2023-09-19T06:58:05;3.35;;;1.60;;
12059;SDS011;6091;51.432;6.880;2023-09-19T07:00:32;4.82;;;2.13;;
12059;SDS011;6091;51.432;6.880;2023-09-19T07:05:46;4.18;;;2.22;;
12059;SDS011;6091;51.432;6.880;2023-09-19T07:08:14;4.40;;;2.08;;
12059;SDS011;6091;51.432;6.880;2023-09-19T07:10:42;3.20;;;1.90;;
12059;SDS011;6091;51.432;6.880;2023-09-19T07:13:15;8.27;;;2.33;;
12059;SDS011;6091;51.432;6.880;2023-09-19T07:15:43;3.95;;;1.90;;
12059;SDS011;6091;51.432;6.880;2023-09-19T07:18:15;4.07;;;1.85;;
12059;SDS011;6091;51.432;6.880;2023-09-19T07:20:43;3.08;;;1.77;;
12059;SDS011;6091;51.432;6.880;2023-09-19T07:23:18;4.45;;;1.92;;
12059;SDS011;6091;51.432;6.880;2023-09-19T07:25:49;5.68;;;2.15;;
12059;SDS011;6091;51.432;6.880;2023-09-19T07:28:20;8.57;;;2.40;;
12059;SDS011;6091;51.432;6.880;2023-09-19T07:30:47;6.07;;;2.28;;
12059;SDS011;6091;51.432;6.880;2023-09-19T07:36:00;3.72;;;2.28;;
12059;SDS011;6091;51.432;6.880;2023-09-19T07:38:27;8.23;;;2.35;;
12059;SDS011;6091;51.432;6.880;2023-09-19T07:41:01;4.72;;;2.05;;
12059;SDS011;6091;51.432;6.880;2023-09-19T07:43:29;4.80;;;2.00;;
12059;SDS011;6091;51.432;6.880;2023-09-19T07:45:57;5.80;;;1.77;;
12059;SDS011;6091;51.432;6.880;2023-09-19T07:48:28;3.70;;;1.50;;
12059;SDS011;6091;51.432;6.880;2023-09-19T07:50:55;7.22;;;1.98;;
12059;SDS011;6091;51.432;6.880;2023-09-19T07:53:28;3.50;;;1.77;;
12059;SDS011;6091;51.432;6.880;2023-09-19T07:56:03;6.70;;;2.30;;
12059;SDS011;6091;51.432;6.880;2023-09-19T07:58:44;4.47;;;2.00;;
12059;SDS011;6091;51.432;6.880;2023-09-19T08:01:11;4.88;;;2.35;;
12059;SDS011;6091;51.432;6.880;2023-09-19T08:03:40;5.28;;;2.22;;
12059;SDS011;6091;51.432;6.880;2023-09-19T08:06:09;3.78;;;2.17;;
12059;SDS011;6091;51.432;6.880;2023-09-19T08:08:36;3.25;;;1.77;;
12059;SDS011;6091;51.432;6.880;2023-09-19T08:11:04;4.90;;;2.13;;
12059;SDS011;6091;51.432;6.880;2023-09-19T08:13:39;6.70;;;2.38;;
12059;SDS011;6091;51.432;6.880;2023-09-19T08:16:15;8.75;;;2.35;;
12059;SDS011;6091;51.432;6.880;2023-09-19T08:18:48;5.32;;;2.30;;
12059;SDS011;6091;51.432;6.880;2023-09-19T08:21:19;4.45;;;2.47;;
12059;SDS011;6091;51.432;6.880;2023-09-19T08:23:46;6.15;;;1.98;;
12059;SDS011;6091;51.432;6.880;2023-09-19T08:26:14;5.85;;;2.20;;
12059;SDS011;6091;51.432;6.880;2023-09-19T08:28:45;5.75;;;2.00;;
12059;SDS011;6091;51.432;6.880;2023-09-19T08:31:13;4.75;;;2.08;;
12059;SDS011;6091;51.432;6.880;2023-09-19T08:33:40;7.03;;;2.50;;
12059;SDS011;6091;51.432;6.880;2023-09-19T08:36:08;4.38;;;2.35;;
12059;SDS011;6091;51.432;6.880;2023-09-19T08:38:36;3.53;;;2.10;;
12059;SDS011;6091;51.432;6.880;2023-09-19T08:41:07;6.72;;;2.40;;
12059;SDS011;6091;51.432;6.880;2023-09-19T08:43:35;7.30;;;2.60;;
12059;SDS011;6091;51.432;6.880;2023-09-19T08:46:14;6.38;;;2.05;;
12059;SDS011;6091;51.432;6.880;2023-09-19T08:49:05;6.03;;;2.20;;
12059;SDS011;6091;51.432;6.880;2023-09-19T08:51:44;5.75;;;1.95;;
12059;SDS011;6091;51.432;6.880;2023-09-19T08:54:25;4.35;;;2.10;;
12059;SDS011;6091;51.432;6.880;2023-09-19T08:56:59;5.05;;;2.10;;
12059;SDS011;6091;51.432;6.880;2023-09-19T08:59:37;5.60;;;2.25;;
12059;SDS011;6091;51.432;6.880;2023-09-19T09:02:12;5.70;;;2.80;;
12059;SDS011;6091;51.432;6.880;2023-09-19T09:04:42;8.18;;;2.67;;
12059;SDS011;6091;51.432;6.880;2023-09-19T09:07:11;4.25;;;2.13;;
12059;SDS011;6091;51.432;6.880;2023-09-19T09:09:39;5.07;;;2.17;;
12059;SDS011;6091;51.432;6.880;2023-09-19T09:12:10;12.68;;;2.97;;
12059;SDS011;6091;51.432;6.880;2023-09-19T09:14:40;6.55;;;2.65;;
12059;SDS011;6091;51.432;6.880;2023-09-19T09:17:14;7.53;;;2.45;;
12059;SDS011;6091;51.432;6.880;2023-09-19T09:19:41;5.93;;;2.42;;
12059;SDS011;6091;51.432;6.880;2023-09-19T09:22:10;7.45;;;2.88;;
12059;SDS011;6091;51.432;6.880;2023-09-19T09:24:50;9.73;;;2.63;;
12059;SDS011;6091;51.432;6.880;2023-09-19T09:27:25;7.80;;;2.83;;
12059;SDS011;6091;51.432;6.880;2023-09-19T09:29:55;6.80;;;2.60;;
12059;SDS011;6091;51.432;6.880;2023-09-19T09:32:27;10.65;;;2.78;;
12059;SDS011;6091;51.432;6.880;2023-09-19T09:35:06;7.80;;;3.03;;
12059;SDS011;6091;51.432;6.880;2023-09-19T09:37:40;6.35;;;2.75;;
12059;SDS011;6091;51.432;6.880;2023-09-19T09:40:10;4.55;;;2.33;;
12059;SDS011;6091;51.432;6.880;2023-09-19T09:42:40;6.13;;;2.47;;
12059;SDS011;6091;51.432;6.880;2023-09-19T09:45:14;3.60;;;2.22;;
12059;SDS011;6091;51.432;6.880;2023-09-19T09:47:47;6.05;;;2.40;;
12059;SDS011;6091;51.432;6.880;2023-09-19T09:50:23;4.38;;;2.30;;
12059;SDS011;6091;51.432;6.880;2023-09-19T09:52:56;5.78;;;2.30;;
12059;SDS011;6091;51.432;6.880;2023-09-19T09:55:56;2.85;;;2.10;;
12059;SDS011;6091;51.432;6.880;2023-09-19T09:58:35;4.10;;;1.65;;
12059;SDS011;6091;51.432;6.880;2023-09-19T10:01:07;4.72;;;2.25;;
12059;SDS011;6091;51.432;6.880;2023-09-19T10:03:41;4.30;;;2.10;;
12059;SDS011;6091;51.432;6.880;2023-09-19T10:06:18;4.40;;;2.22;;
12059;SDS011;6091;51.432;6.880;2023-09-19T10:09:02;4.85;;;2.47;;
12059;SDS011;6091;51.432;6.880;2023-09-19T10:11:39;4.43;;;2.20;;
12059;SDS011;6091;51.432;6.880;2023-09-19T10:14:14;4.35;;;2.00;;
12059;SDS011;6091;51.432;6.880;2023-09-19T10:16:47;3.10;;;1.83;;
12059;SDS011;6091;51.432;6.880;2023-09-19T10:19:27;3.10;;;1.95;;
12059;SDS011;6091;51.432;6.880;2023-09-19T10:22:20;6.20;;;1.95;;
12059;SDS011;6091;51.432;6.880;2023-09-19T10:24:49;5.70;;;2.42;;
12059;SDS011;6091;51.432;6.880;2023-09-19T10:27:22;4.05;;;2.00;;
12059;SDS011;6091;51.432;6.880;2023-09-19T10:29:53;4.10;;;2.10;;
12059;SDS011;6091;51.432;6.880;2023-09-19T10:32:23;4.65;;;2.38;;
12059;SDS011;6091;51.432;6.880;2023-09-19T10:35:00;4.65;;;2.03;;
12059;SDS011;6091;51.432;6.880;2023-09-19T10:37:31;5.63;;;2.33;;
12059;SDS011;6091;51.432;6.880;2023-09-19T10:40:00;4.00;;;2.50;;
12059;SDS011;6091;51.432;6.880;2023-09-19T10:42:28;3.67;;;2.10;;
12059;SDS011;6091;51.432;6.880;2023-09-19T10:44:59;3.70;;;2.15;;
12059;SDS011;6091;51.432;6.880;2023-09-19T10:47:33;6.07;;;2.03;;
12059;SDS011;6091;51.432;6.880;2023-09-19T10:50:05;3.45;;;2.30;;
12059;SDS011;6091;51.432;6.880;2023-09-19T10:52:40;7.47;;;2.60;;
12059;SDS011;6091;51.432;6.880;2023-09-19T10:55:10;6.60;;;2.38;;
12059;SDS011;6091;51.432;6.880;2023-09-19T10:57:45;7.05;;;2.28;;
12059;SDS011;6091;51.432;6.880;2023-09-19T11:00:14;6.13;;;2.33;;
12059;SDS011;6091;51.432;6.880;2023-09-19T11:05:39;4.65;;;2.38;;
12059;SDS011;6091;51.432;6.880;2023-09-19T11:08:07;3.92;;;2.35;;
12059;SDS011;6091;51.432;6.880;2023-09-19T11:10:45;4.65;;;2.33;;
12059;SDS011;6091;51.432;6.880;2023-09-19T11:13:25;3.88;;;2.03;;
12059;SDS011;6091;51.432;6.880;2023-09-19T11:26:51;4.60;;;2.53;;
12059;SDS011;6091;51.432;6.880;2023-09-19T11:29:44;6.47;;;2.30;;
12059;SDS011;6091;51.432;6.880;2023-09-19T11:32:11;5.80;;;2.20;;
12059;SDS011;6091;51.432;6.880;2023-09-19T11:34:43;7.00;;;2.80;;
12059;SDS011;6091;51.432;6.880;2023-09-19T11:42:46;3.28;;;2.28;;
12059;SDS011;6091;51.432;6.880;2023-09-19T11:48:15;4.57;;;2.10;;
12059;SDS011;6091;51.432;6.880;2023-09-19T11:50:45;4.55;;;2.10;;
12059;SDS011;6091;51.432;6.880;2023-09-19T11:53:13;5.18;;;2.13;;
12059;SDS011;6091;51.432;6.880;2023-09-19T11:55:42;4.40;;;2.67;;
12059;SDS011;6091;51.432;6.880;2023-09-19T11:58:11;3.63;;;2.17;;
12059;SDS011;6091;51.432;6.880;2023-09-19T12:00:43;4.15;;;2.20;;
12059;SDS011;6091;51.432;6.880;2023-09-19T12:03:13;4.40;;;2.45;;
12059;SDS011;6091;51.432;6.880;2023-09-19T12:05:43;4.55;;;2.08;;
12059;SDS011;6091;51.432;6.880;2023-09-19T12:08:10;4.20;;;2.15;;
12059;SDS011;6091;51.432;6.880;2023-09-19T12:10:49;4.85;;;2.25;;
12059;SDS011;6091;51.432;6.880;2023-09-19T12:13:22;2.85;;;1.55;;
12059;SDS011;6091;51.432;6.880;2023-09-19T12:15:49;3.40;;;2.10;;
12059;SDS011;6091;51.432;6.880;2023-09-19T12:18:29;3.30;;;2.17;;
12059;SDS011;6091;51.432;6.880;2023-09-19T12:20:57;2.67;;;1.85;;
12059;SDS011;6091;51.432;6.880;2023-09-19T12:23:25;4.22;;;2.25;;
12059;SDS011;6091;51.432;6.880;2023-09-19T12:25:52;3.20;;;1.85;;
12059;SDS011;6091;51.432;6.880;2023-09-19T12:28:25;3.92;;;1.90;;
12059;SDS011;6091;51.432;6.880;2023-09-19T12:31:06;3.75;;;2.30;;
12059;SDS011;6091;51.432;6.880;2023-09-19T12:33:38;6.18;;;2.20;;
12059;SDS011;6091;51.432;6.880;2023-09-19T12:36:27;2.92;;;1.90;;
12059;SDS011;6091;51.432;6.880;2023-09-19T12:39:00;3.42;;;1.90;;
12059;SDS011;6091;51.432;6.880;2023-09-19T12:41:34;2.67;;;1.65;;
12059;SDS011;6091;51.432;6.880;2023-09-19T12:44:04;4.25;;;1.90;;
12059;SDS011;6091;51.432;6.880;2023-09-19T12:46:36;4.47;;;1.95;;
12059;SDS011;6091;51.432;6.880;2023-09-19T12:51:48;3.28;;;2.03;;
12059;SDS011;6091;51.432;6.880;2023-09-19T12:54:15;4.40;;;1.73;;
12059;SDS011;6091;51.432;6.880;2023-09-19T12:56:46;3.97;;;1.73;;
12059;SDS011;6091;51.432;6.880;2023-09-19T12:59:15;4.35;;;2.30;;
12059;SDS011;6091;51.432;6.880;2023-09-19T13:01:43;3.83;;;2.20;;
12059;SDS011;6091;51.432;6.880;2023-09-19T13:04:18;5.10;;;2.10;;
12059;SDS011;6091;51.432;6.880;2023-09-19T13:06:55;3.30;;;2.15;;
12059;SDS011;6091;51.432;6.880;2023-09-19T13:09:28;5.38;;;1.85;;
12059;SDS011;6091;51.432;6.880;2023-09-19T13:12:02;4.72;;;1.92;;
12059;SDS011;6091;51.432;6.880;2023-09-19T13:14:30;3.78;;;1.80;;
12059;SDS011;6091;51.432;6.880;2023-09-19T13:19:46;4.88;;;1.70;;
12059;SDS011;6091;51.432;6.880;2023-09-19T13:22:36;3.05;;;1.77;;
12059;SDS011;6091;51.432;6.880;2023-09-19T13:25:10;2.42;;;1.48;;
12059;SDS011;6091;51.432;6.880;2023-09-19T13:27:48;2.25;;;1.70;;
12059;SDS011;6091;51.432;6.880;2023-09-19T13:30:23;3.20;;;1.83;;
12059;SDS011;6091;51.432;6.880;2023-09-19T13:33:03;2.83;;;1.65;;
12059;SDS011;6091;51.432;6.880;2023-09-19T13:35:38;2.80;;;1.50;;
12059;SDS011;6091;51.432;6.880;2023-09-19T13:38:08;2.78;;;1.77;;
12059;SDS011;6091;51.432;6.880;2023-09-19T13:40:35;2.30;;;1.42;;
12059;SDS011;6091;51.432;6.880;2023-09-19T13:43:06;5.75;;;1.70;;
12059;SDS011;6091;51.432;6.880;2023-09-19T13:45:33;1.65;;;1.20;;
12059;SDS011;6091;51.432;6.880;2023-09-19T13:48:00;1.88;;;1.30;;
12059;SDS011;6091;51.432;6.880;2023-09-19T13:50:27;2.47;;;1.58;;
12059;SDS011;6091;51.432;6.880;2023-09-19T13:52:57;4.40;;;1.65;;
12059;SDS011;6091;51.432;6.880;2023-09-19T13:55:27;2.60;;;1.60;;
12059;SDS011;6091;51.432;6.880;2023-09-19T13:57:54;2.75;;;1.40;;
12059;SDS011;6091;51.432;6.880;2023-09-19T14:00:22;4.00;;;1.50;;
12059;SDS011;6091;51.432;6.880;2023-09-19T14:02:50;3.45;;;1.50;;
12059;SDS011;6091;51.432;6.880;2023-09-19T14:05:18;3.55;;;1.30;;
12059;SDS011;6091;51.432;6.880;2023-09-19T14:07:47;2.47;;;1.23;;
12059;SDS011;6091;51.432;6.880;2023-09-19T14:10:15;3.70;;;1.50;;
12059;SDS011;6091;51.432;6.880;2023-09-19T14:12:45;2.35;;;1.40;;
12059;SDS011;6091;51.432;6.880;2023-09-19T14:15:12;2.33;;;1.27;;
12059;SDS011;6091;51.432;6.880;2023-09-19T14:17:40;2.22;;;1.13;;
12059;SDS011;6091;51.432;6.880;2023-09-19T14:20:13;3.00;;;1.40;;
12059;SDS011;6091;51.432;6.880;2023-09-19T14:22:42;1.73;;;1.10;;
12059;SDS011;6091;51.432;6.880;2023-09-19T14:25:09;3.25;;;1.55;;
12059;SDS011;6091;51.432;6.880;2023-09-19T14:27:36;1.52;;;1.20;;
12059;SDS011;6091;51.432;6.880;2023-09-19T14:30:03;1.63;;;1.00;;
12059;SDS011;6091;51.432;6.880;2023-09-19T14:32:32;1.67;;;1.23;;
12059;SDS011;6091;51.432;6.880;2023-09-19T14:35:00;1.65;;;1.05;;
12059;SDS011;6091;51.432;6.880;2023-09-19T14:37:27;2.47;;;1.20;;
12059;SDS011;6091;51.432;6.880;2023-09-19T14:39:54;1.70;;;1.20;;
12059;SDS011;6091;51.432;6.880;2023-09-19T14:42:22;3.28;;;1.40;;
12059;SDS011;6091;51.432;6.880;2023-09-19T14:44:49;2.22;;;1.00;;
12059;SDS011;6091;51.432;6.880;2023-09-19T14:47:16;1.48;;;1.02;;
12059;SDS011;6091;51.432;6.880;2023-09-19T14:49:43;1.65;;;0.90;;
12059;SDS011;6091;51.432;6.880;2023-09-19T14:52:11;1.85;;;1.00;;
12059;SDS011;6091;51.432;6.880;2023-09-19T14:54:42;1.52;;;1.00;;
12059;SDS011;6091;51.432;6.880;2023-09-19T14:57:09;1.17;;;0.98;;
12059;SDS011;6091;51.432;6.880;2023-09-19T14:59:36;2.10;;;1.10;;
12059;SDS011;6091;51.432;6.880;2023-09-19T15:02:05;2.70;;;1.35;;
12059;SDS011;6091;51.432;6.880;2023-09-19T15:04:35;2.50;;;1.20;;
12059;SDS011;6091;51.432;6.880;2023-09-19T15:07:03;2.72;;;1.20;;
12059;SDS011;6091;51.432;6.880;2023-09-19T15:09:30;2.03;;;1.20;;
12059;SDS011;6091;51.432;6.880;2023-09-19T15:11:59;2.53;;;1.08;;
12059;SDS011;6091;51.432;6.880;2023-09-19T15:14:27;3.10;;;1.30;;
12059;SDS011;6091;51.432;6.880;2023-09-19T15:16:55;2.30;;;1.17;;
12059;SDS011;6091;51.432;6.880;2023-09-19T15:19:23;2.08;;;1.20;;
12059;SDS011;6091;51.432;6.880;2023-09-19T15:21:50;1.73;;;1.10;;
12059;SDS011;6091;51.432;6.880;2023-09-19T15:24:18;4.68;;;1.17;;
12059;SDS011;6091;51.432;6.880;2023-09-19T15:26:46;3.47;;;1.17;;
12059;SDS011;6091;51.432;6.880;2023-09-19T15:29:14;2.33;;;1.13;;
12059;SDS011;6091;51.432;6.880;2023-09-19T15:31:42;2.53;;;1.40;;
12059;SDS011;6091;51.432;6.880;2023-09-19T15:34:10;1.30;;;0.98;;
12059;SDS011;6091;51.432;6.880;2023-09-19T15:36:40;1.88;;;0.90;;
12059;SDS011;6091;51.432;6.880;2023-09-19T15:39:08;1.70;;;1.10;;
12059;SDS011;6091;51.432;6.880;2023-09-19T15:41:38;1.85;;;1.05;;
12059;SDS011;6091;51.432;6.880;2023-09-19T15:44:11;3.05;;;1.00;;
12059;SDS011;6091;51.432;6.880;2023-09-19T15:46:45;1.92;;;0.90;;
12059;SDS011;6091;51.432;6.880;2023-09-19T15:49:13;1.85;;;0.90;;
12059;SDS011;6091;51.432;6.880;2023-09-19T15:51:41;1.40;;;0.80;;
12059;SDS011;6091;51.432;6.880;2023-09-19T15:54:13;1.58;;;1.10;;
12059;SDS011;6091;51.432;6.880;2023-09-19T15:56:42;1.92;;;0.82;;
12059;SDS011;6091;51.432;6.880;2023-09-19T15:59:10;1.27;;;0.95;;
12059;SDS011;6091;51.432;6.880;2023-09-19T16:01:42;3.95;;;1.20;;
12059;SDS011;6091;51.432;6.880;2023-09-19T16:04:12;1.95;;;0.80;;
12059;SDS011;6091;51.432;6.880;2023-09-19T16:06:40;2.80;;;1.20;;
12059;SDS011;6091;51.432;6.880;2023-09-19T16:09:08;2.85;;;1.23;;
12059;SDS011;6091;51.432;6.880;2023-09-19T16:11:36;1.50;;;1.10;;
12059;SDS011;6091;51.432;6.880;2023-09-19T16:14:04;1.83;;;0.98;;
12059;SDS011;6091;51.432;6.880;2023-09-19T16:16:37;1.20;;;0.80;;